Time;durP1;ratioP1;P1;durP2;ratioP2;P2;SDS_P1;SDS_P2;PMS_P1;PMS_P2;Temp;Humidity;BMP_temperature;BMP_pressure;BME280_temperature;BME280_humidity;BME280_pressure;Samples;Min_cycle;Max_cycle;Signal;HPM_P1;HPM_P2
2022/05/18 00:00:28;;;;;;;5.20;2.10;;;16.80;72.90;;;;;;5033455;28;20500;-44
2022/05/18 00:02:55;;;;;;;4.60;2.27;;;16.50;72.70;;;;;;5034662;28;20475;-44
2022/05/18 00:05:22;;;;;;;6.00;2.80;;;16.50;72.70;;;;;;5035211;28;20935;-44
2022/05/18 00:07:49;;;;;;;4.40;2.43;;;16.50;72.70;;;;;;5035569;28;20520;-44
2022/05/18 00:10:16;;;;;;;6.60;2.70;;;16.70;73.00;;;;;;5034832;28;21115;-44
2022/05/18 00:12:44;;;;;;;5.13;2.40;;;16.40;72.70;;;;;;5035142;28;20470;-45
2022/05/18 00:15:14;;;;;;;7.47;2.80;;;16.00;71.90;;;;;;5035303;28;20446;-44
2022/05/18 00:17:41;;;;;;;9.20;2.40;;;16.70;72.50;;;;;;5035628;28;20963;-44
2022/05/18 00:20:09;;;;;;;8.57;2.40;;;16.30;72.10;;;;;;5034538;28;20491;-44
2022/05/18 00:22:44;;;;;;;5.20;2.93;;;16.20;71.80;;;;;;5034798;28;20526;-44
2022/05/18 00:25:11;;;;;;;5.83;3.00;;;16.40;72.00;;;;;;5034663;28;20435;-44
2022/05/18 00:27:37;;;;;;;3.60;2.07;;;16.80;72.20;;;;;;5033646;28;20434;-44
2022/05/18 00:30:05;;;;;;;6.57;2.70;;;16.20;71.40;;;;;;5032048;28;20452;-43
2022/05/18 00:32:33;;;;;;;5.67;2.60;;;16.20;71.10;;;;;;5033803;28;20432;-43
2022/05/18 00:34:59;;;;;;;5.77;3.17;;;16.10;70.60;;;;;;5033652;28;20445;-44
2022/05/18 00:37:26;;;;;;;4.67;3.23;;;16.40;70.90;;;;;;5033624;28;20841;-44
2022/05/18 00:39:52;;;;;;;7.30;2.60;;;16.30;70.70;;;;;;5032757;28;20445;-44
2022/05/18 00:42:20;;;;;;;8.00;2.57;;;16.20;70.10;;;;;;5033335;28;20439;-44
2022/05/18 00:44:47;;;;;;;3.97;2.77;;;16.30;70.10;;;;;;5033308;28;20443;-44
2022/05/18 00:47:14;;;;;;;5.93;2.33;;;16.00;69.70;;;;;;5033489;28;20965;-44
2022/05/18 00:49:46;;;;;;;3.97;2.57;;;16.00;69.70;;;;;;5032881;28;20429;-44
2022/05/18 00:52:15;;;;;;;10.70;2.33;;;16.10;69.40;;;;;;5033151;28;20536;-44
2022/05/18 00:54:43;;;;;;;14.37;3.00;;;16.00;69.00;;;;;;5033126;28;20454;-44
2022/05/18 00:57:15;;;;;;;8.10;2.60;;;16.40;69.20;;;;;;5033393;28;20439;-44
2022/05/18 00:59:45;;;;;;;5.93;2.77;;;16.00;68.40;;;;;;5033249;28;20995;-44
2022/05/18 01:02:13;;;;;;;6.20;2.60;;;15.50;67.70;;;;;;5033985;28;20450;-43
2022/05/18 01:04:43;;;;;;;7.60;2.73;;;15.70;68.00;;;;;;5031860;28;20483;-43
2022/05/18 01:07:14;;;;;;;5.83;2.83;;;16.10;68.60;;;;;;5033158;28;20431;-43
2022/05/18 01:09:43;;;;;;;6.30;2.80;;;15.90;68.20;;;;;;5032998;28;20785;-43
2022/05/18 01:12:17;;;;;;;6.83;2.40;;;16.20;68.30;;;;;;5032683;28;20650;-43
2022/05/18 01:14:48;;;;;;;6.50;2.37;;;16.10;68.10;;;;;;5033441;28;20443;-43
2022/05/18 01:17:17;;;;;;;10.40;3.27;;;15.80;67.80;;;;;;5033266;28;20936;-44
2022/05/18 01:19:48;;;;;;;9.10;4.57;;;15.70;67.70;;;;;;5032753;28;20851;-44
2022/05/18 01:22:24;;;;;;;15.20;5.80;;;15.50;66.30;;;;;;5033339;28;20466;-44
2022/05/18 01:25:02;;;;;;;12.30;8.57;;;15.20;66.00;;;;;;5033052;28;20439;-44
2022/05/18 01:27:30;;;;;;;13.53;6.13;;;15.70;66.50;;;;;;5033112;28;20444;-44
2022/05/18 01:29:57;;;;;;;17.47;12.10;;;15.10;65.60;;;;;;5032085;28;20431;-44
2022/05/18 01:32:24;;;;;;;17.67;11.87;;;15.50;66.00;;;;;;5032585;28;20959;-45
2022/05/18 01:34:51;;;;;;;18.97;11.47;;;15.70;66.30;;;;;;5032510;28;20529;-44
2022/05/18 01:37:18;;;;;;;7.70;5.77;;;15.40;65.90;;;;;;5031555;28;20456;-45
2022/05/18 01:39:51;;;;;;;9.63;3.70;;;15.70;66.10;;;;;;5032046;28;20433;-44
2022/05/18 01:42:24;;;;;;;8.40;3.20;;;15.40;65.60;;;;;;5032676;28;20487;-44
2022/05/18 01:44:52;;;;;;;6.47;3.00;;;15.40;65.70;;;;;;5032799;28;20434;-44
2022/05/18 01:47:19;;;;;;;15.30;2.80;;;15.90;66.20;;;;;;5032647;28;20885;-44
2022/05/18 01:49:47;;;;;;;3.23;1.93;;;15.80;65.60;;;;;;5032312;28;20442;-44
2022/05/18 01:52:14;;;;;;;9.10;2.27;;;15.70;65.30;;;;;;5032755;28;20450;-44
2022/05/18 01:54:44;;;;;;;7.90;2.10;;;15.40;64.80;;;;;;5032400;28;20459;-44
2022/05/18 01:57:10;;;;;;;5.50;1.80;;;15.30;64.40;;;;;;5032382;28;20439;-44
2022/05/18 01:59:38;;;;;;;5.40;2.17;;;15.40;63.40;;;;;;5031935;28;20431;-44
2022/05/18 02:02:12;;;;;;;8.47;1.70;;;15.00;62.70;;;;;;5032232;28;20444;-44
2022/05/18 02:04:39;;;;;;;4.33;1.77;;;15.60;63.50;;;;;;5032303;28;20475;-44
2022/05/18 02:07:06;;;;;;;6.50;2.13;;;15.60;63.30;;;;;;5032074;28;20435;-44
2022/05/18 02:09:33;;;;;;;3.90;1.90;;;15.10;62.40;;;;;;5031544;28;20447;-44
2022/05/18 02:12:00;;;;;;;5.70;2.47;;;15.30;62.40;;;;;;5031937;28;20941;-44
2022/05/18 02:14:27;;;;;;;4.90;1.93;;;15.20;62.20;;;;;;5031916;28;20455;-44
2022/05/18 02:16:54;;;;;;;3.40;1.60;;;15.40;62.10;;;;;;5032080;28;20446;-44
2022/05/18 02:19:22;;;;;;;11.97;2.00;;;15.60;61.90;;;;;;5031632;28;20936;-44
2022/05/18 02:21:49;;;;;;;3.80;1.67;;;15.10;61.00;;;;;;5033301;28;20479;-44
2022/05/18 02:24:16;;;;;;;3.60;1.53;;;14.90;60.90;;;;;;5036992;28;20458;-44
2022/05/18 02:26:43;;;;;;;3.20;1.70;;;15.10;60.80;;;;;;5037811;28;20447;-44
2022/05/18 02:29:10;;;;;;;5.10;1.63;;;15.00;60.50;;;;;;5036330;28;20789;-44
2022/05/18 02:31:38;;;;;;;4.83;1.70;;;15.00;60.00;;;;;;5035604;28;20439;-44
2022/05/18 02:34:04;;;;;;;4.20;1.53;;;14.90;60.00;;;;;;5035635;28;20454;-44
2022/05/18 02:36:32;;;;;;;6.40;1.70;;;15.20;60.30;;;;;;5035553;28;20457;-43
2022/05/18 02:38:59;;;;;;;5.87;1.93;;;14.90;59.60;;;;;;5035363;28;20537;-43
2022/05/18 02:41:25;;;;;;;4.87;1.70;;;14.90;59.70;;;;;;5035403;28;20483;-43
2022/05/18 02:43:54;;;;;;;3.57;1.60;;;14.80;59.50;;;;;;5035484;28;20997;-43
2022/05/18 02:46:23;;;;;;;3.80;1.53;;;14.60;59.40;;;;;;5035423;28;20951;-43
2022/05/18 02:48:51;;;;;;;5.57;1.53;;;14.90;59.20;;;;;;5034915;28;20430;-43
2022/05/18 02:51:18;;;;;;;3.77;1.80;;;14.80;58.90;;;;;;5035096;28;20439;-43
2022/05/18 02:53:46;;;;;;;4.70;1.30;;;15.20;59.20;;;;;;5035116;28;20984;-43
2022/05/18 02:56:16;;;;;;;7.90;1.80;;;14.90;58.80;;;;;;5035243;28;20443;-44
2022/05/18 02:58:46;;;;;;;4.80;2.00;;;14.60;58.50;;;;;;5034722;28;20426;-44
2022/05/18 03:01:14;;;;;;;4.00;1.83;;;14.70;58.60;;;;;;5034990;28;21034;-44
2022/05/18 03:03:42;;;;;;;6.77;1.97;;;14.60;58.50;;;;;;5034808;28;20471;-44
2022/05/18 03:06:10;;;;;;;3.73;1.47;;;14.70;58.60;;;;;;5035089;28;20427;-44
2022/05/18 03:08:39;;;;;;;4.67;1.57;;;14.90;58.50;;;;;;5034754;28;20807;-44
2022/05/18 03:11:07;;;;;;;2.50;1.53;;;14.70;58.20;;;;;;5034952;28;20439;-44
2022/05/18 03:13:34;;;;;;;4.50;1.90;;;14.70;58.10;;;;;;5034717;28;20450;-45
2022/05/18 03:16:01;;;;;;;9.57;2.40;;;14.20;57.60;;;;;;5034811;28;20445;-44
2022/05/18 03:18:28;;;;;;;2.20;1.50;;;14.60;58.50;;;;;;5034915;28;20442;-44
2022/05/18 03:23:39;;;;;;;9.33;1.70;;;14.50;57.50;;;;;;5034669;28;20465;-43
2022/05/18 03:26:09;;;;;;;3.80;1.57;;;15.00;57.80;;;;;;5034961;28;20436;-44
2022/05/18 03:28:36;;;;;;;5.80;1.80;;;14.60;57.30;;;;;;5035677;28;20807;-44
2022/05/18 03:31:04;;;;;;;3.00;1.43;;;14.60;57.30;;;;;;5035707;28;20437;-44
2022/05/18 03:33:31;;;;;;;3.87;1.60;;;14.80;57.30;;;;;;5033765;28;20818;-43
2022/05/18 03:35:57;;;;;;;3.40;1.43;;;14.50;57.00;;;;;;5034347;28;20436;-43
2022/05/18 03:38:25;;;;;;;10.37;1.83;;;14.90;57.30;;;;;;5034248;28;20527;-43
2022/05/18 03:40:51;;;;;;;2.33;1.30;;;14.70;56.90;;;;;;5034474;28;20841;-44
2022/05/18 03:43:20;;;;;;;9.43;1.70;;;15.00;56.90;;;;;;5034386;28;20991;-43
2022/05/18 03:45:47;;;;;;;4.20;1.40;;;14.50;56.30;;;;;;5033373;28;20447;-43
2022/05/18 03:48:15;;;;;;;5.37;1.70;;;14.70;56.30;;;;;;5034375;28;20971;-44
2022/05/18 03:50:46;;;;;;;2.47;1.40;;;14.90;56.40;;;;;;5034099;28;21027;-43
2022/05/18 03:53:13;;;;;;;4.90;1.20;;;14.30;55.80;;;;;;5034651;28;20928;-44
2022/05/18 03:55:42;;;;;;;3.20;1.70;;;14.60;56.10;;;;;;5033924;28;20435;-43
2022/05/18 03:58:09;;;;;;;4.13;1.50;;;14.40;55.50;;;;;;5033845;28;20446;-44
2022/05/18 04:00:38;;;;;;;3.20;1.67;;;14.60;55.80;;;;;;5033517;28;20971;-43
2022/05/18 04:03:05;;;;;;;3.30;1.60;;;15.00;56.10;;;;;;5056216;22;20525;-52
2022/05/18 04:05:32;;;;;;;4.90;1.47;;;15.20;56.00;;;;;;5033409;28;20435;-52
2022/05/18 04:08:00;;;;;;;4.23;1.40;;;14.80;55.40;;;;;;5033158;28;20435;-52
2022/05/18 04:10:26;;;;;;;3.00;1.57;;;14.90;55.30;;;;;;5032938;28;20443;-50
2022/05/18 04:12:53;;;;;;;1.70;1.30;;;14.90;54.90;;;;;;5035798;28;20476;-52
2022/05/18 04:15:20;;;;;;;5.07;1.20;;;15.30;55.00;;;;;;5053166;28;20448;-52
2022/05/18 04:17:48;;;;;;;5.40;1.83;;;15.50;55.00;;;;;;5053133;28;21244;-49
2022/05/18 04:20:17;;;;;;;5.67;1.60;;;15.10;54.60;;;;;;5052691;28;20482;-49
2022/05/18 04:22:44;;;;;;;2.77;1.67;;;15.30;54.60;;;;;;5052860;28;20446;-49
2022/05/18 04:25:13;;;;;;;11.90;2.10;;;15.40;54.30;;;;;;5051687;28;20456;-49
2022/05/18 04:27:40;;;;;;;4.93;1.67;;;15.50;54.00;;;;;;5052731;28;20450;-49
2022/05/18 04:30:08;;;;;;;4.50;1.67;;;16.50;54.40;;;;;;5052518;28;20458;-50
2022/05/18 04:32:38;;;;;;;4.23;1.80;;;15.40;53.50;;;;;;5052647;28;20517;-49
2022/05/18 04:35:08;;;;;;;3.97;1.63;;;15.40;53.30;;;;;;5052868;28;20435;-49
2022/05/18 04:37:35;;;;;;;2.37;1.23;;;15.80;53.50;;;;;;5052651;28;20445;-49
2022/05/18 04:40:01;;;;;;;2.83;1.60;;;15.80;53.30;;;;;;5052278;28;20438;-49
2022/05/18 04:42:28;;;;;;;2.47;1.43;;;16.20;53.20;;;;;;5051013;28;20482;-49
2022/05/18 04:44:55;;;;;;;9.33;1.60;;;15.90;52.80;;;;;;5052539;28;20461;-49
2022/05/18 04:47:22;;;;;;;6.77;1.90;;;16.20;52.90;;;;;;5050922;28;20452;-49
2022/05/18 04:49:50;;;;;;;4.57;1.40;;;16.00;52.80;;;;;;5051992;28;20518;-49
2022/05/18 04:52:19;;;;;;;3.40;1.60;;;16.40;53.10;;;;;;5052272;28;20800;-49
2022/05/18 04:54:46;;;;;;;3.47;1.53;;;16.50;53.30;;;;;;5052158;28;20463;-49
2022/05/18 04:57:13;;;;;;;5.83;2.13;;;17.20;53.50;;;;;;5052169;28;20441;-49
2022/05/18 04:59:39;;;;;;;3.10;1.80;;;16.30;52.90;;;;;;5051780;28;20431;-49
2022/05/18 05:02:06;;;;;;;3.13;1.50;;;16.50;52.80;;;;;;5052173;28;20614;-49
2022/05/18 05:04:34;;;;;;;4.13;1.70;;;16.50;52.80;;;;;;5051777;28;20522;-48
2022/05/18 05:07:01;;;;;;;5.03;1.70;;;16.40;52.20;;;;;;5052239;28;20439;-49
2022/05/18 05:09:29;;;;;;;5.60;1.90;;;16.50;52.30;;;;;;5052018;28;20427;-48
2022/05/18 05:11:56;;;;;;;5.80;1.67;;;16.70;52.30;;;;;;5050849;28;21000;-49
2022/05/18 05:14:23;;;;;;;1.77;1.40;;;17.00;52.40;;;;;;5050359;28;20464;-49
2022/05/18 05:16:50;;;;;;;4.50;1.80;;;16.80;52.40;;;;;;5051994;28;20430;-49
2022/05/18 05:19:17;;;;;;;2.40;1.30;;;16.20;51.90;;;;;;5051375;28;20469;-49
2022/05/18 05:21:44;;;;;;;11.13;2.50;;;17.10;52.50;;;;;;5051469;28;20474;-48
2022/05/18 05:24:12;;;;;;;4.47;1.70;;;17.10;52.60;;;;;;5051735;28;20999;-48
2022/05/18 05:26:40;;;;;;;2.47;1.60;;;17.00;52.60;;;;;;5051524;28;20448;-49
2022/05/18 05:29:07;;;;;;;4.13;1.73;;;16.60;52.10;;;;;;5051389;28;20831;-49
2022/05/18 05:31:34;;;;;;;4.37;2.10;;;17.30;52.60;;;;;;5051858;28;20435;-49
2022/05/18 05:34:01;;;;;;;4.07;2.20;;;17.10;52.60;;;;;;5051023;28;20977;-49
2022/05/18 05:36:28;;;;;;;3.17;1.67;;;17.30;52.50;;;;;;5051527;28;20435;-49
2022/05/18 05:38:56;;;;;;;3.80;2.27;;;17.20;52.50;;;;;;5051068;28;20428;-50
2022/05/18 05:41:23;;;;;;;5.43;2.10;;;17.00;52.20;;;;;;5051007;28;20479;-49
2022/05/18 05:43:51;;;;;;;3.10;1.50;;;17.60;52.40;;;;;;5051239;28;20479;-50
2022/05/18 05:46:18;;;;;;;5.10;1.47;;;17.40;52.30;;;;;;5050990;28;20447;-50
2022/05/18 05:48:46;;;;;;;2.77;1.87;;;17.30;52.10;;;;;;5050596;28;20431;-49
2022/05/18 05:51:15;;;;;;;2.73;1.87;;;17.50;52.30;;;;;;5051247;28;20431;-50
2022/05/18 05:53:43;;;;;;;3.77;1.83;;;17.40;52.20;;;;;;5051244;28;20490;-50
2022/05/18 05:56:11;;;;;;;2.73;1.90;;;17.70;52.50;;;;;;5050378;28;20435;-50
2022/05/18 05:58:38;;;;;;;8.27;2.13;;;17.20;52.20;;;;;;5050323;28;20435;-51
2022/05/18 06:01:08;;;;;;;7.50;1.73;;;17.30;52.30;;;;;;5049546;28;20458;-49
2022/05/18 06:03:36;;;;;;;3.23;2.30;;;17.80;52.60;;;;;;5050985;28;20890;-50
2022/05/18 06:06:03;;;;;;;5.57;1.80;;;17.60;52.40;;;;;;5051223;28;20432;-50
2022/05/18 06:08:31;;;;;;;9.47;2.90;;;17.10;52.20;;;;;;5050729;28;20555;-51
2022/05/18 06:10:58;;;;;;;4.00;2.17;;;17.30;52.40;;;;;;5050856;28;20468;-49
2022/05/18 06:13:25;;;;;;;3.97;2.10;;;17.30;52.40;;;;;;5050799;28;20984;-49
2022/05/18 06:15:52;;;;;;;5.17;2.53;;;17.80;52.90;;;;;;5049323;28;20855;-49
2022/05/18 06:18:20;;;;;;;4.30;2.03;;;17.50;52.70;;;;;;5050958;28;20432;-48
2022/05/18 06:20:47;;;;;;;10.37;3.00;;;17.80;52.80;;;;;;5050773;28;20790;-48
2022/05/18 06:23:15;;;;;;;4.43;2.00;;;17.10;52.40;;;;;;5050825;28;20461;-49
2022/05/18 06:25:42;;;;;;;4.40;2.30;;;17.60;52.70;;;;;;5050744;28;20443;-49
2022/05/18 06:28:09;;;;;;;4.50;2.10;;;17.70;52.70;;;;;;5050961;28;20434;-49
2022/05/18 06:30:36;;;;;;;6.77;1.87;;;17.40;52.50;;;;;;5050329;28;20538;-52
2022/05/18 06:33:03;;;;;;;9.63;2.40;;;17.40;52.70;;;;;;5050474;28;20452;-49
2022/05/18 06:35:32;;;;;;;2.47;1.60;;;17.80;53.00;;;;;;5050944;28;20438;-49
2022/05/18 06:37:59;;;;;;;6.10;2.00;;;18.10;52.90;;;;;;5050896;28;20523;-52
2022/05/18 06:41:21;;;;;;;6.07;2.93;;;18.20;53.00;;;;;;5050307;28;20427;-52
2022/05/18 06:43:14;;;;;;;5.60;2.17;;;17.90;53.50;;;;;;5050360;28;20551;-52
2022/05/18 06:45:40;;;;;;;5.20;2.10;;;18.20;53.40;;;;;;5049152;28;20503;-50
2022/05/18 06:48:07;;;;;;;6.00;1.93;;;17.80;53.00;;;;;;5049851;28;20444;-51
2022/05/18 06:50:35;;;;;;;7.70;2.53;;;18.10;53.30;;;;;;5050351;28;20433;-52
2022/05/18 06:53:02;;;;;;;4.60;3.40;;;18.00;54.00;;;;;;5050843;28;20460;-56
2022/05/18 06:55:28;;;;;;;4.93;2.40;;;18.10;53.80;;;;;;5050356;28;20432;-51
2022/05/18 06:57:55;;;;;;;5.23;2.80;;;18.20;53.90;;;;;;5050575;28;20475;-51
2022/05/18 07:00:22;;;;;;;4.80;2.30;;;18.10;53.90;;;;;;5050476;28;20434;-51
2022/05/18 07:02:50;;;;;;;10.17;2.73;;;18.20;54.20;;;;;;5050104;28;20469;-52
2022/05/18 07:05:17;;;;;;;3.43;2.03;;;18.40;54.60;;;;;;5050675;28;20435;-51
2022/05/18 07:07:45;;;;;;;5.80;2.80;;;18.30;54.60;;;;;;5050191;28;20445;-51
2022/05/18 07:10:12;;;;;;;6.03;2.30;;;18.40;54.70;;;;;;5053442;28;20430;-51
2022/05/18 07:12:39;;;;;;;3.87;1.83;;;18.30;54.80;;;;;;5053975;28;20448;-52
2022/05/18 07:15:07;;;;;;;5.60;3.10;;;18.30;54.90;;;;;;5054530;28;20448;-51
2022/05/18 07:17:35;;;;;;;3.77;2.20;;;18.30;54.90;;;;;;5054152;28;20438;-51
2022/05/18 07:20:01;;;;;;;3.03;2.23;;;18.40;54.90;;;;;;5053572;28;20501;-52
2022/05/18 07:22:28;;;;;;;4.50;2.70;;;18.60;55.00;;;;;;5053696;28;20806;-52
2022/05/18 07:24:57;;;;;;;6.13;3.33;;;18.50;55.00;;;;;;5053622;28;20756;-50
2022/05/18 07:27:23;;;;;;;6.63;2.53;;;18.50;55.20;;;;;;5053824;28;20442;-50
2022/05/18 07:29:50;;;;;;;4.27;2.27;;;19.10;55.80;;;;;;5053427;28;20430;-50
2022/05/18 07:32:17;;;;;;;5.00;2.43;;;18.80;55.90;;;;;;5053759;28;20778;-50
2022/05/18 07:34:45;;;;;;;3.70;2.40;;;18.40;55.80;;;;;;5053626;28;20454;-50
2022/05/18 07:37:13;;;;;;;6.00;2.80;;;18.40;55.90;;;;;;5053804;28;20764;-53
2022/05/18 07:39:40;;;;;;;3.10;2.73;;;18.00;55.80;;;;;;5053448;28;20457;-48
2022/05/18 07:42:09;;;;;;;4.80;2.70;;;18.60;56.40;;;;;;5053714;28;20484;-49
2022/05/18 07:44:37;;;;;;;8.30;3.33;;;18.60;56.50;;;;;;5054286;28;20835;-50
2022/05/18 07:47:06;;;;;;;8.50;2.90;;;18.60;56.50;;;;;;5054265;28;20443;-50
2022/05/18 07:49:35;;;;;;;6.60;2.90;;;18.80;56.80;;;;;;5054053;28;20467;-50
2022/05/18 07:52:01;;;;;;;6.73;3.03;;;18.50;56.50;;;;;;5054118;28;20491;-50
2022/05/18 07:54:28;;;;;;;6.67;2.90;;;18.60;56.70;;;;;;5053906;28;20797;-50
2022/05/18 07:56:55;;;;;;;5.43;3.33;;;19.00;57.30;;;;;;5053773;28;20502;-50
2022/05/18 07:59:23;;;;;;;4.10;3.10;;;18.40;57.40;;;;;;5053123;28;20448;-50
2022/05/18 08:01:50;;;;;;;9.10;3.27;;;18.80;57.80;;;;;;5053504;28;20488;-51
2022/05/18 08:04:17;;;;;;;10.40;4.73;;;18.30;57.50;;;;;;5053748;28;20468;-50
2022/05/18 08:06:44;;;;;;;10.10;3.13;;;18.70;57.90;;;;;;5054403;28;20469;-50
2022/05/18 08:09:11;;;;;;;7.20;3.20;;;18.60;57.90;;;;;;5053433;28;20434;-50
2022/05/18 08:17:07;;;;;;;5.93;3.13;;;18.80;57.80;;;;;;5053393;28;20758;-50
2022/05/18 08:19:34;;;;;;;6.07;3.80;;;19.20;58.40;;;;;;5052520;28;20445;-50
2022/05/18 08:22:01;;;;;;;6.63;3.70;;;18.90;58.30;;;;;;5051714;28;20847;-50
2022/05/18 08:24:27;;;;;;;9.93;3.00;;;19.00;58.30;;;;;;5053032;28;20465;-50
2022/05/18 08:26:56;;;;;;;8.20;3.37;;;19.20;58.60;;;;;;5053011;28;20445;-50
2022/05/18 08:29:24;;;;;;;6.30;3.43;;;19.00;58.50;;;;;;5052613;28;20453;-50
2022/05/18 08:31:50;;;;;;;6.43;2.80;;;19.50;59.20;;;;;;5052551;28;20431;-49
2022/05/18 08:34:18;;;;;;;5.90;3.07;;;19.20;59.20;;;;;;5052593;28;20469;-50
2022/05/18 08:36:45;;;;;;;6.10;3.00;;;19.30;58.40;;;;;;5052360;28;20442;-50
2022/05/18 08:39:11;;;;;;;5.60;2.83;;;18.60;58.20;;;;;;5052381;28;20430;-50
2022/05/18 08:41:44;;;;;;;5.50;3.30;;;19.10;59.10;;;;;;5052396;28;20461;-49
2022/05/18 08:44:24;;;;;;;5.20;4.17;;;19.20;58.80;;;;;;5052467;28;20823;-49
2022/05/18 08:47:05;;;;;;;6.40;3.40;;;19.40;59.80;;;;;;5052405;28;20433;-50
2022/05/18 08:49:41;;;;;;;6.87;3.90;;;19.10;59.50;;;;;;5051988;28;20499;-50
2022/05/18 08:52:27;;;;;;;5.47;3.60;;;19.60;60.10;;;;;;5052434;28;20796;-49
2022/05/18 08:55:05;;;;;;;7.43;3.97;;;19.40;59.80;;;;;;5053000;28;20816;-49
2022/05/18 08:57:37;;;;;;;4.43;2.93;;;19.20;59.70;;;;;;5052416;28;20434;-49
2022/05/18 09:00:10;;;;;;;5.23;3.37;;;19.40;60.00;;;;;;5051989;28;20433;-49
2022/05/18 09:02:42;;;;;;;8.53;3.47;;;19.30;60.10;;;;;;5052398;28;20787;-49
2022/05/18 09:05:13;;;;;;;5.17;3.50;;;19.40;60.80;;;;;;5051046;28;20958;-49
2022/05/18 09:07:45;;;;;;;4.57;2.87;;;19.40;61.10;;;;;;5051874;28;20445;-49
2022/05/18 09:10:23;;;;;;;7.23;3.83;;;19.60;61.30;;;;;;5050951;28;20789;-49
2022/05/18 09:12:51;;;;;;;4.10;3.70;;;19.00;61.30;;;;;;5051755;28;20438;-49
2022/05/18 09:15:21;;;;;;;5.37;3.33;;;19.00;61.20;;;;;;5051753;28;20440;-48
2022/05/18 09:17:55;;;;;;;6.93;4.50;;;19.30;61.80;;;;;;5052506;28;20851;-50
2022/05/18 09:20:25;;;;;;;9.30;4.10;;;19.50;62.70;;;;;;5051463;28;20423;-48
2022/05/18 09:23:09;;;;;;;8.60;4.47;;;19.70;63.10;;;;;;5051406;28;20805;-51
2022/05/18 09:25:46;;;;;;;9.17;4.33;;;19.60;63.20;;;;;;5051514;28;20435;-49
2022/05/18 09:28:21;;;;;;;9.43;5.10;;;19.50;62.90;;;;;;5051119;28;20798;-49
2022/05/18 09:31:03;;;;;;;7.83;4.03;;;19.70;63.20;;;;;;5051343;28;20441;-48
2022/05/18 09:33:59;;;;;;;5.67;3.80;;;19.20;62.50;;;;;;5051271;28;20465;-49
2022/05/18 09:36:49;;;;;;;8.20;4.20;;;19.80;64.10;;;;;;5051321;28;20434;-49
2022/05/18 09:39:20;;;;;;;7.60;4.50;;;19.60;64.20;;;;;;5051109;28;20440;-49
2022/05/18 09:41:53;;;;;;;11.87;7.97;;;19.10;63.70;;;;;;5051505;28;20438;-49
2022/05/18 09:44:25;;;;;;;6.40;4.30;;;19.60;64.80;;;;;;5051058;28;20902;-50
2022/05/18 09:46:53;;;;;;;6.10;4.30;;;19.90;65.30;;;;;;5051750;28;20443;-50
2022/05/18 09:49:25;;;;;;;9.23;4.03;;;19.90;65.60;;;;;;5050847;28;20438;-49
2022/05/18 09:51:56;;;;;;;6.30;4.77;;;20.00;66.00;;;;;;5051350;28;20454;-49
2022/05/18 09:54:23;;;;;;;6.13;4.43;;;20.00;66.60;;;;;;5051243;28;20457;-49
2022/05/18 09:56:56;;;;;;;6.60;4.87;;;19.90;66.90;;;;;;5049790;28;20495;-49
2022/05/18 09:59:28;;;;;;;7.93;5.20;;;20.00;66.60;;;;;;5050875;28;20433;-49
2022/05/18 10:07:30;;;;;;;9.27;5.17;;;20.10;67.70;;;;;;5035023;28;20531;-44
2022/05/18 10:10:12;;;;;;;8.97;5.97;;;20.30;67.80;;;;;;5032896;28;20431;-43
2022/05/18 10:12:46;;;;;;;7.23;4.50;;;20.20;68.20;;;;;;5032531;28;20420;-44
2022/05/18 10:15:22;;;;;;;9.27;5.10;;;20.40;68.70;;;;;;5033183;28;20460;-44
2022/05/18 10:17:53;;;;;;;10.67;4.47;;;20.80;68.30;;;;;;5034155;28;20769;-44
2022/05/18 10:20:26;;;;;;;7.10;4.27;;;20.30;67.30;;;;;;5033162;28;20561;-45
2022/05/18 10:22:54;;;;;;;11.90;4.93;;;20.70;67.50;;;;;;5032724;28;20476;-43
2022/05/18 10:25:26;;;;;;;6.10;5.13;;;21.00;68.20;;;;;;5033491;28;20440;-43
2022/05/18 10:27:54;;;;;;;8.53;5.70;;;20.70;68.50;;;;;;5032734;28;20867;-44
2022/05/18 10:30:28;;;;;;;6.73;5.00;;;20.70;69.10;;;;;;5031335;28;20429;-43
2022/05/18 10:32:59;;;;;;;10.90;4.90;;;20.10;68.20;;;;;;5033077;28;20446;-44
2022/05/18 10:35:47;;;;;;;7.20;5.00;;;20.70;68.40;;;;;;5033244;28;20434;-44
2022/05/18 10:38:23;;;;;;;7.13;4.67;;;20.90;68.20;;;;;;5033114;28;20453;-44
2022/05/18 10:40:53;;;;;;;6.17;5.57;;;20.90;68.00;;;;;;5032501;28;20440;-44
2022/05/18 10:43:33;;;;;;;8.83;5.43;;;20.90;68.20;;;;;;5034694;28;20494;-44
2022/05/18 10:46:03;;;;;;;6.90;5.20;;;20.40;67.50;;;;;;5036419;28;20420;-43
2022/05/18 10:48:32;;;;;;;8.23;6.10;;;20.90;68.70;;;;;;5035857;28;20813;-44
2022/05/18 10:51:02;;;;;;;11.17;6.90;;;21.00;69.40;;;;;;5036179;28;20446;-45
2022/05/18 10:53:33;;;;;;;8.20;5.63;;;20.90;69.70;;;;;;5037077;28;20460;-43
2022/05/18 10:56:04;;;;;;;6.47;5.87;;;21.20;69.90;;;;;;5040406;28;20449;-43
2022/05/18 10:58:35;;;;;;;7.40;6.67;;;20.70;69.10;;;;;;5039314;28;20449;-44
2022/05/18 11:01:05;;;;;;;6.57;5.07;;;21.20;69.70;;;;;;5039616;28;20647;-44
2022/05/18 11:03:39;;;;;;;8.70;5.77;;;21.40;69.00;;;;;;5039602;28;20936;-44
2022/05/18 11:06:11;;;;;;;8.73;6.30;;;21.40;68.70;;;;;;5038524;28;20436;-44
2022/05/18 11:08:38;;;;;;;11.60;5.40;;;21.40;68.10;;;;;;5039349;28;20534;-43
2022/05/18 11:11:26;;;;;;;10.20;5.80;;;21.50;67.90;;;;;;5035698;28;20444;-44
2022/05/18 11:14:01;;;;;;;8.40;5.40;;;21.60;68.10;;;;;;5038417;28;20515;-43
2022/05/18 11:16:45;;;;;;;12.27;5.70;;;21.80;67.90;;;;;;5039345;28;20486;-43
2022/05/18 11:19:22;;;;;;;7.03;4.57;;;21.50;66.70;;;;;;5038812;28;20438;-43
2022/05/18 11:22:00;;;;;;;5.90;4.67;;;21.80;64.40;;;;;;5039992;28;20431;-43
2022/05/18 11:24:36;;;;;;;9.50;5.23;;;21.70;64.80;;;;;;5038625;28;20493;-44
2022/05/18 11:27:18;;;;;;;6.50;4.60;;;21.30;64.90;;;;;;5038226;28;20525;-42
2022/05/18 11:29:59;;;;;;;7.03;4.63;;;22.20;65.10;;;;;;5035445;28;20457;-45
2022/05/18 11:32:34;;;;;;;6.50;5.07;;;21.80;63.40;;;;;;5036760;28;20958;-45
2022/05/18 11:35:20;;;;;;;6.80;4.00;;;21.70;62.70;;;;;;5038152;28;20493;-44
2022/05/18 11:38:04;;;;;;;4.80;4.17;;;21.80;62.90;;;;;;5037509;28;20431;-44
2022/05/18 11:40:39;;;;;;;6.00;4.00;;;21.90;62.80;;;;;;5037091;28;20440;-43
2022/05/18 11:43:28;;;;;;;6.90;4.13;;;21.60;62.70;;;;;;5036128;28;20474;-44
2022/05/18 11:46:11;;;;;;;5.80;4.13;;;22.00;62.70;;;;;;5035580;28;20434;-44
2022/05/18 11:48:45;;;;;;;5.57;4.23;;;22.00;62.90;;;;;;5035118;28;20438;-45
2022/05/18 11:51:22;;;;;;;11.77;4.77;;;22.10;62.70;;;;;;5036044;28;20445;-46
2022/05/18 11:53:58;;;;;;;4.20;3.70;;;21.70;62.40;;;;;;5035763;28;21001;-44
2022/05/18 11:56:33;;;;;;;8.53;4.70;;;22.30;63.60;;;;;;5035109;28;20442;-44
2022/05/18 11:59:28;;;;;;;6.53;4.27;;;22.30;63.70;;;;;;5034642;28;20952;-44
2022/05/18 12:02:02;;;;;;;9.37;4.23;;;22.20;63.60;;;;;;5034885;28;20554;-43
2022/05/18 12:04:51;;;;;;;6.77;5.47;;;22.00;63.70;;;;;;5034574;28;20483;-45
2022/05/18 12:07:31;;;;;;;14.00;5.63;;;22.40;64.50;;;;;;5034838;28;20976;-45
2022/05/18 12:10:15;;;;;;;6.70;4.80;;;22.10;64.40;;;;;;5033466;28;20431;-44
2022/05/18 12:12:47;;;;;;;6.30;4.37;;;22.10;64.30;;;;;;5034927;28;20430;-44
2022/05/18 12:15:24;;;;;;;9.37;7.20;;;22.30;64.40;;;;;;5033992;28;20459;-45
2022/05/18 12:17:57;;;;;;;7.00;4.87;;;22.40;65.20;;;;;;5034066;28;20431;-45
2022/05/18 12:20:29;;;;;;;5.27;4.60;;;22.40;64.50;;;;;;5034043;28;20443;-44
2022/05/18 12:22:59;;;;;;;13.40;5.07;;;22.20;64.60;;;;;;5034815;28;20462;-44
2022/05/18 12:25:29;;;;;;;5.90;5.30;;;22.20;64.70;;;;;;5034755;28;20796;-43
2022/05/18 12:28:00;;;;;;;6.70;5.00;;;22.60;64.90;;;;;;5032323;28;20459;-43
2022/05/18 12:30:29;;;;;;;9.03;5.27;;;22.20;64.10;;;;;;5034165;28;20438;-44
2022/05/18 12:32:57;;;;;;;7.70;5.37;;;22.60;64.50;;;;;;5034806;28;20463;-43
2022/05/18 12:35:31;;;;;;;6.47;4.87;;;22.50;64.50;;;;;;5035219;28;20440;-43
2022/05/18 12:38:05;;;;;;;11.43;5.90;;;22.70;63.90;;;;;;5034725;28;20434;-44
2022/05/18 12:40:45;;;;;;;7.17;5.10;;;22.80;64.10;;;;;;5033880;28;20427;-45
2022/05/18 12:43:17;;;;;;;5.03;4.07;;;22.60;64.00;;;;;;5034025;28;21017;-48
2022/05/18 12:45:48;;;;;;;7.87;4.70;;;22.90;64.00;;;;;;5033822;28;20474;-44
2022/05/18 12:48:22;;;;;;;6.60;4.80;;;22.90;61.80;;;;;;5034702;28;20437;-44
2022/05/18 12:51:02;;;;;;;8.63;4.90;;;22.90;61.40;;;;;;5034514;28;20428;-42
2022/05/18 12:53:47;;;;;;;8.77;5.50;;;23.00;62.00;;;;;;5035207;28;20532;-44
2022/05/18 12:56:20;;;;;;;7.00;4.80;;;23.00;61.70;;;;;;5033826;28;20433;-42
2022/05/18 12:58:55;;;;;;;7.47;4.67;;;23.10;61.90;;;;;;5035041;28;20441;-43
2022/05/18 13:01:23;;;;;;;6.63;4.20;;;22.90;61.40;;;;;;5034854;28;20438;-45
2022/05/18 13:03:57;;;;;;;5.77;4.10;;;23.10;60.70;;;;;;5034704;28;20523;-43
2022/05/18 13:06:39;;;;;;;4.33;3.80;;;23.10;60.90;;;;;;5033658;28;20479;-44
2022/05/18 13:09:25;;;;;;;5.90;4.70;;;22.70;60.70;;;;;;5032369;28;20492;-46
2022/05/18 13:11:59;;;;;;;4.93;4.30;;;23.20;61.10;;;;;;5032144;28;20461;-44
2022/05/18 13:14:38;;;;;;;8.47;5.00;;;23.10;60.90;;;;;;5033640;28;20461;-43